sensor_id;sensor_type;location;lat;lon;timestamp;pressure;altitude;pressure_sealevel;temperature;humidity
68656;BME280;55638;51.122;13.606;2022-09-09T00:00:49;99737.41;;;12.09;63.34
68656;BME280;55638;51.122;13.606;2022-09-09T00:02:28;99745.69;;;12.07;63.11
68656;BME280;55638;51.122;13.606;2022-09-09T00:04:16;99744.97;;;12.05;63.27
68656;BME280;55638;51.122;13.606;2022-09-09T00:06:02;99744.13;;;12.05;63.11
68656;BME280;55638;51.122;13.606;2022-09-09T00:07:45;99744.28;;;12.03;63.20
68656;BME280;55638;51.122;13.606;2022-09-09T00:09:21;99752.97;;;12.07;63.32
68656;BME280;55638;51.122;13.606;2022-09-09T00:10:58;99740.41;;;12.06;63.13
68656;BME280;55638;51.122;13.606;2022-09-09T00:14:23;99743.28;;;12.04;63.45
68656;BME280;55638;51.122;13.606;2022-09-09T00:16:20;99744.28;;;12.03;63.14
68656;BME280;55638;51.122;13.606;2022-09-09T00:19:50;99753.28;;;12.04;62.95
68656;BME280;55638;51.122;13.606;2022-09-09T00:21:33;99739.03;;;12.01;63.08
68656;BME280;55638;51.122;13.606;2022-09-09T00:23:29;99741.56;;;12.03;63.13
68656;BME280;55638;51.122;13.606;2022-09-09T00:25:08;99743.81;;;12.08;63.08
68656;BME280;55638;51.122;13.606;2022-09-09T00:26:45;99742.13;;;12.07;62.89
68656;BME280;55638;51.122;13.606;2022-09-09T00:28:23;99743.81;;;12.08;63.05
68656;BME280;55638;51.122;13.606;2022-09-09T00:30:23;99738.03;;;12.02;62.77
68656;BME280;55638;51.122;13.606;2022-09-09T00:32:04;99735.72;;;12.08;63.08
68656;BME280;55638;51.122;13.606;2022-09-09T00:33:36;99738.72;;;12.05;63.01
68656;BME280;55638;51.122;13.606;2022-09-09T00:36:42;99731.84;;;12.10;63.29
68656;BME280;55638;51.122;13.606;2022-09-09T00:40:02;99739.44;;;12.07;63.00
68656;BME280;55638;51.122;13.606;2022-09-09T00:43:36;99739.56;;;12.05;62.76
68656;BME280;55638;51.122;13.606;2022-09-09T00:45:33;99733.78;;;12.00;62.76
68656;BME280;55638;51.122;13.606;2022-09-09T00:50:53;99734.94;;;11.97;62.56
68656;BME280;55638;51.122;13.606;2022-09-09T00:52:30;99724.44;;;11.94;62.75
68656;BME280;55638;51.122;13.606;2022-09-09T00:56:16;99731.78;;;11.84;62.83
68656;BME280;55638;51.122;13.606;2022-09-09T00:57:53;99724.34;;;11.86;62.97
68656;BME280;55638;51.122;13.606;2022-09-09T00:59:34;99728.06;;;11.85;62.78
68656;BME280;55638;51.122;13.606;2022-09-09T01:01:12;99739.06;;;11.84;62.93
68656;BME280;55638;51.122;13.606;2022-09-09T01:04:31;99741.19;;;11.80;63.25
68656;BME280;55638;51.122;13.606;2022-09-09T01:06:15;99738.66;;;11.78;63.12
68656;BME280;55638;51.122;13.606;2022-09-09T01:07:49;99746.91;;;11.77;63.14
68656;BME280;55638;51.122;13.606;2022-09-09T01:09:42;99748.94;;;11.75;62.96
68656;BME280;55638;51.122;13.606;2022-09-09T01:11:27;99749.78;;;11.75;62.89
68656;BME280;55638;51.122;13.606;2022-09-09T01:13:08;99738.13;;;11.75;62.81
68656;BME280;55638;51.122;13.606;2022-09-09T01:14:48;99744.69;;;11.72;62.86
68656;BME280;55638;51.122;13.606;2022-09-09T01:16:21;99736.75;;;11.71;63.04
68656;BME280;55638;51.122;13.606;2022-09-09T01:18:05;99737.06;;;11.68;63.01
68656;BME280;55638;51.122;13.606;2022-09-09T01:21:40;99735.63;;;11.64;62.80
68656;BME280;55638;51.122;13.606;2022-09-09T01:27:36;99739.84;;;11.58;63.10
68656;BME280;55638;51.122;13.606;2022-09-09T01:29:13;99735.53;;;11.55;63.08
68656;BME280;55638;51.122;13.606;2022-09-09T01:30:46;99748.34;;;11.53;63.04
68656;BME280;55638;51.122;13.606;2022-09-09T01:32:44;99745.28;;;11.48;63.25
68656;BME280;55638;51.122;13.606;2022-09-09T01:34:17;99750.50;;;11.50;63.22
68656;BME280;55638;51.122;13.606;2022-09-09T01:35:56;99746.13;;;11.49;63.28
68656;BME280;55638;51.122;13.606;2022-09-09T01:37:33;99740.84;;;11.47;63.28
68656;BME280;55638;51.122;13.606;2022-09-09T01:39:05;99741.00;;;11.46;63.42
68656;BME280;55638;51.122;13.606;2022-09-09T01:40:38;99748.28;;;11.45;63.56
68656;BME280;55638;51.122;13.606;2022-09-09T01:42:13;99740.31;;;11.44;63.47
68656;BME280;55638;51.122;13.606;2022-09-09T01:43:47;99740.31;;;11.44;63.73
68656;BME280;55638;51.122;13.606;2022-09-09T01:45:19;99740.16;;;11.45;63.84
68656;BME280;55638;51.122;13.606;2022-09-09T01:46:51;99738.16;;;11.47;63.94
68656;BME280;55638;51.122;13.606;2022-09-09T01:48:26;99732.72;;;11.47;63.88
68656;BME280;55638;51.122;13.606;2022-09-09T01:50:15;99730.91;;;11.48;63.77
68656;BME280;55638;51.122;13.606;2022-09-09T01:51:53;99729.06;;;11.48;63.67
68656;BME280;55638;51.122;13.606;2022-09-09T01:53:36;99728.75;;;11.51;63.94
68656;BME280;55638;51.122;13.606;2022-09-09T01:55:09;99733.16;;;11.52;63.81
68656;BME280;55638;51.122;13.606;2022-09-09T02:00:21;99730.84;;;11.58;63.49
68656;BME280;55638;51.122;13.606;2022-09-09T02:02:13;99727.44;;;11.55;63.28
68656;BME280;55638;51.122;13.606;2022-09-09T02:03:57;99726.31;;;11.58;63.68
68656;BME280;55638;51.122;13.606;2022-09-09T02:05:38;99719.88;;;11.59;63.19
68656;BME280;55638;51.122;13.606;2022-09-09T02:09:11;99721.44;;;11.62;63.42
68656;BME280;55638;51.122;13.606;2022-09-09T02:10:50;99718.72;;;11.62;63.31
68656;BME280;55638;51.122;13.606;2022-09-09T02:12:40;99720.28;;;11.64;63.47
68656;BME280;55638;51.122;13.606;2022-09-09T02:14:17;99725.13;;;11.61;63.25
68656;BME280;55638;51.122;13.606;2022-09-09T02:15:57;99725.84;;;11.63;63.40
68656;BME280;55638;51.122;13.606;2022-09-09T02:17:36;99727.53;;;11.64;63.04
68656;BME280;55638;51.122;13.606;2022-09-09T02:19:22;99728.41;;;11.64;63.48
68656;BME280;55638;51.122;13.606;2022-09-09T02:21:12;99732.78;;;11.65;63.28
68656;BME280;55638;51.122;13.606;2022-09-09T02:22:47;99732.78;;;11.65;63.32
68656;BME280;55638;51.122;13.606;2022-09-09T02:24:23;99738.34;;;11.64;63.28
68656;BME280;55638;51.122;13.606;2022-09-09T02:26:06;99732.63;;;11.67;63.32
68656;BME280;55638;51.122;13.606;2022-09-09T02:27:41;99739.91;;;11.66;63.18
68656;BME280;55638;51.122;13.606;2022-09-09T02:29:19;99732.78;;;11.65;63.36
68656;BME280;55638;51.122;13.606;2022-09-09T02:30:51;99738.75;;;11.69;63.57
68656;BME280;55638;51.122;13.606;2022-09-09T02:32:35;99730.47;;;11.70;63.46
68656;BME280;55638;51.122;13.606;2022-09-09T02:34:11;99733.03;;;11.72;63.29
68656;BME280;55638;51.122;13.606;2022-09-09T02:35:44;99739.16;;;11.74;63.75
68656;BME280;55638;51.122;13.606;2022-09-09T02:37:23;99736.97;;;11.77;63.71
68656;BME280;55638;51.122;13.606;2022-09-09T02:38:58;99735.13;;;11.78;63.79
68656;BME280;55638;51.122;13.606;2022-09-09T02:40:33;99735.47;;;11.83;63.49
68656;BME280;55638;51.122;13.606;2022-09-09T02:42:07;99730.78;;;11.85;63.42
68656;BME280;55638;51.122;13.606;2022-09-09T02:43:40;99742.97;;;11.89;63.43
68656;BME280;55638;51.122;13.606;2022-09-09T02:45:20;99736.25;;;11.93;63.16
68656;BME280;55638;51.122;13.606;2022-09-09T02:50:33;99740.38;;;11.97;62.51
68656;BME280;55638;51.122;13.606;2022-09-09T02:52:10;99733.09;;;11.98;62.55
68656;BME280;55638;51.122;13.606;2022-09-09T02:56:16;99729.84;;;11.94;62.08
68656;BME280;55638;51.122;13.606;2022-09-09T02:57:53;99730.53;;;11.96;62.73
68656;BME280;55638;51.122;13.606;2022-09-09T02:59:26;99736.25;;;11.93;62.77
68656;BME280;55638;51.122;13.606;2022-09-09T03:00:58;99728.13;;;11.93;62.63
68656;BME280;55638;51.122;13.606;2022-09-09T03:02:33;99732.69;;;11.93;62.77
68656;BME280;55638;51.122;13.606;2022-09-09T03:04:09;99742.69;;;11.92;62.38
68656;BME280;55638;51.122;13.606;2022-09-09T03:05:43;99739.84;;;11.94;62.75
68656;BME280;55638;51.122;13.606;2022-09-09T03:07:16;99738.94;;;11.93;62.68
68656;BME280;55638;51.122;13.606;2022-09-09T03:08:49;99734.56;;;11.92;62.73
68656;BME280;55638;51.122;13.606;2022-09-09T03:10:26;99734.25;;;11.95;62.68
68656;BME280;55638;51.122;13.606;2022-09-09T03:11:58;99733.41;;;11.95;62.54
68656;BME280;55638;51.122;13.606;2022-09-09T03:13:31;99732.56;;;11.94;62.82
68656;BME280;55638;51.122;13.606;2022-09-09T03:15:03;99738.63;;;11.96;62.80
68656;BME280;55638;51.122;13.606;2022-09-09T03:16:35;99734.25;;;11.95;62.66
68656;BME280;55638;51.122;13.606;2022-09-09T03:18:08;99735.94;;;11.96;62.71
68656;BME280;55638;51.122;13.606;2022-09-09T03:19:40;99734.94;;;11.97;62.54
68656;BME280;55638;51.122;13.606;2022-09-09T03:21:13;99736.81;;;11.97;62.61
68656;BME280;55638;51.122;13.606;2022-09-09T03:22:46;99740.19;;;11.99;62.31
68656;BME280;55638;51.122;13.606;2022-09-09T03:24:18;99736.66;;;11.98;62.46
68656;BME280;55638;51.122;13.606;2022-09-09T03:25:50;99742.06;;;11.98;62.23
68656;BME280;55638;51.122;13.606;2022-09-09T03:27:32;99734.78;;;11.99;62.40
68656;BME280;55638;51.122;13.606;2022-09-09T03:29:04;99743.91;;;11.98;62.11
68656;BME280;55638;51.122;13.606;2022-09-09T03:30:38;99739.53;;;11.97;62.34
68656;BME280;55638;51.122;13.606;2022-09-09T03:32:10;99743.06;;;11.97;62.37
68656;BME280;55638;51.122;13.606;2022-09-09T03:33:43;99737.66;;;11.97;62.44
68656;BME280;55638;51.122;13.606;2022-09-09T03:35:18;99744.06;;;11.96;62.41
68656;BME280;55638;51.122;13.606;2022-09-09T03:36:50;99737.66;;;11.97;62.34
68656;BME280;55638;51.122;13.606;2022-09-09T03:38:23;99732.56;;;11.94;62.46
68656;BME280;55638;51.122;13.606;2022-09-09T03:39:55;99734.25;;;11.95;62.19
68656;BME280;55638;51.122;13.606;2022-09-09T03:41:27;99737.13;;;11.94;62.21
68656;BME280;55638;51.122;13.606;2022-09-09T03:43:00;99736.25;;;11.93;62.40
68656;BME280;55638;51.122;13.606;2022-09-09T03:44:32;99740.81;;;11.93;62.54
68656;BME280;55638;51.122;13.606;2022-09-09T03:46:04;99739.97;;;11.92;62.45
68656;BME280;55638;51.122;13.606;2022-09-09T03:47:36;99737.97;;;11.94;62.25
68656;BME280;55638;51.122;13.606;2022-09-09T03:49:10;99735.09;;;11.96;62.55
68656;BME280;55638;51.122;13.606;2022-09-09T03:50:46;99743.38;;;11.94;61.99
68656;BME280;55638;51.122;13.606;2022-09-09T03:52:18;99737.78;;;11.96;62.37
68656;BME280;55638;51.122;13.606;2022-09-09T03:53:55;99739.66;;;11.95;62.33
68656;BME280;55638;51.122;13.606;2022-09-09T03:55:28;99743.22;;;11.96;62.15
68656;BME280;55638;51.122;13.606;2022-09-09T03:57:00;99736.09;;;11.95;62.39
68656;BME280;55638;51.122;13.606;2022-09-09T03:58:33;99734.94;;;11.97;62.26
68656;BME280;55638;51.122;13.606;2022-09-09T04:00:10;99733.09;;;11.98;62.21
68656;BME280;55638;51.122;13.606;2022-09-09T04:01:47;99743.91;;;11.98;62.32
68656;BME280;55638;51.122;13.606;2022-09-09T04:03:20;99732.25;;;11.97;62.29
68656;BME280;55638;51.122;13.606;2022-09-09T04:04:58;99737.66;;;11.97;61.92
68656;BME280;55638;51.122;13.606;2022-09-09T04:06:31;99725.13;;;11.96;62.24
68656;BME280;55638;51.122;13.606;2022-09-09T04:08:02;99734.09;;;11.97;62.26
68656;BME280;55638;51.122;13.606;2022-09-09T04:09:34;99737.66;;;11.97;62.13
68656;BME280;55638;51.122;13.606;2022-09-09T04:11:06;99739.66;;;11.95;62.16
68656;BME280;55638;51.122;13.606;2022-09-09T04:12:39;99740.50;;;11.96;61.97
68656;BME280;55638;51.122;13.606;2022-09-09T04:14:12;99751.50;;;11.94;62.00
68656;BME280;55638;51.122;13.606;2022-09-09T04:15:50;99749.25;;;11.90;61.43
68656;BME280;55638;51.122;13.606;2022-09-09T04:17:22;99746.53;;;11.90;61.87
68656;BME280;55638;51.122;13.606;2022-09-09T04:18:54;99748.41;;;11.89;62.09
68656;BME280;55638;51.122;13.606;2022-09-09T04:20:27;99748.56;;;11.88;62.14
68656;BME280;55638;51.122;13.606;2022-09-09T04:21:59;99748.69;;;11.86;62.11
68656;BME280;55638;51.122;13.606;2022-09-09T04:23:31;99752.44;;;11.85;62.16
68656;BME280;55638;51.122;13.606;2022-09-09T04:25:03;99753.44;;;11.84;62.28
68656;BME280;55638;51.122;13.606;2022-09-09T04:26:35;99748.03;;;11.84;62.09
68656;BME280;55638;51.122;13.606;2022-09-09T04:28:08;99744.63;;;11.82;62.25
68656;BME280;55638;51.122;13.606;2022-09-09T04:29:40;99748.34;;;11.81;62.34
68656;BME280;55638;51.122;13.606;2022-09-09T04:31:18;99743.06;;;11.79;62.31
68656;BME280;55638;51.122;13.606;2022-09-09T04:32:51;99736.66;;;11.81;62.51
68656;BME280;55638;51.122;13.606;2022-09-09T04:34:23;99736.66;;;11.81;62.53
68656;BME280;55638;51.122;13.606;2022-09-09T04:35:57;99743.06;;;11.79;62.51
68656;BME280;55638;51.122;13.606;2022-09-09T04:37:30;99733.97;;;11.81;62.74
68656;BME280;55638;51.122;13.606;2022-09-09T04:39:02;99737.34;;;11.83;62.81
68656;BME280;55638;51.122;13.606;2022-09-09T04:40:35;99746.00;;;11.86;62.84
68656;BME280;55638;51.122;13.606;2022-09-09T04:42:06;99737.22;;;11.84;62.88
68656;BME280;55638;51.122;13.606;2022-09-09T04:43:39;99746.00;;;11.86;62.79
68656;BME280;55638;51.122;13.606;2022-09-09T04:45:12;99753.13;;;11.87;62.80
68656;BME280;55638;51.122;13.606;2022-09-09T04:46:45;99753.81;;;11.89;62.79
68656;BME280;55638;51.122;13.606;2022-09-09T04:48:18;99758.06;;;11.92;62.74
68656;BME280;55638;51.122;13.606;2022-09-09T04:49:50;99755.34;;;11.92;62.54
68656;BME280;55638;51.122;13.606;2022-09-09T04:51:23;99752.47;;;11.93;62.40
68656;BME280;55638;51.122;13.606;2022-09-09T04:52:56;99748.94;;;11.93;62.53
68656;BME280;55638;51.122;13.606;2022-09-09T04:54:31;99746.41;;;11.91;62.68
68656;BME280;55638;51.122;13.606;2022-09-09T04:56:07;99740.97;;;11.91;62.42
68656;BME280;55638;51.122;13.606;2022-09-09T04:57:45;99750.66;;;11.94;62.71
68656;BME280;55638;51.122;13.606;2022-09-09T04:59:18;99743.38;;;11.94;62.66
68656;BME280;55638;51.122;13.606;2022-09-09T05:00:54;99742.22;;;11.97;62.66
68656;BME280;55638;51.122;13.606;2022-09-09T05:02:26;99748.00;;;12.02;62.67
68656;BME280;55638;51.122;13.606;2022-09-09T05:04:02;99737.88;;;12.04;62.77
68656;BME280;55638;51.122;13.606;2022-09-09T05:05:36;99742.13;;;12.07;62.74
68656;BME280;55638;51.122;13.606;2022-09-09T05:07:09;99745.38;;;12.10;62.59
68656;BME280;55638;51.122;13.606;2022-09-09T05:08:44;99745.75;;;12.15;62.61
68656;BME280;55638;51.122;13.606;2022-09-09T05:10:17;99751.69;;;12.19;62.65
68656;BME280;55638;51.122;13.606;2022-09-09T05:11:50;99743.09;;;12.23;62.85
68656;BME280;55638;51.122;13.606;2022-09-09T05:13:36;99746.19;;;12.29;62.85
68656;BME280;55638;51.122;13.606;2022-09-09T05:15:11;99750.13;;;12.34;62.78
68656;BME280;55638;51.122;13.606;2022-09-09T05:16:46;99755.03;;;12.39;62.28
68656;BME280;55638;51.122;13.606;2022-09-09T05:18:19;99747.16;;;12.45;62.73
68656;BME280;55638;51.122;13.606;2022-09-09T05:19:50;99744.81;;;12.51;62.46
68656;BME280;55638;51.122;13.606;2022-09-09T05:21:24;99749.81;;;12.55;62.50
68656;BME280;55638;51.122;13.606;2022-09-09T05:22:58;99748.47;;;12.59;62.12
68656;BME280;55638;51.122;13.606;2022-09-09T05:24:33;99757.81;;;12.65;62.28
68656;BME280;55638;51.122;13.606;2022-09-09T05:26:11;99762.56;;;12.71;61.98
68656;BME280;55638;51.122;13.606;2022-09-09T05:27:49;99752.97;;;12.77;62.05
68656;BME280;55638;51.122;13.606;2022-09-09T05:29:21;99762.47;;;12.81;61.79
68656;BME280;55638;51.122;13.606;2022-09-09T05:31:01;99762.31;;;12.82;60.64
68656;BME280;55638;51.122;13.606;2022-09-09T05:32:37;99765.38;;;12.87;61.64
68656;BME280;55638;51.122;13.606;2022-09-09T05:34:09;99768.63;;;12.91;61.73
68656;BME280;55638;51.122;13.606;2022-09-09T05:35:41;99770.00;;;12.95;61.88
68656;BME280;55638;51.122;13.606;2022-09-09T05:37:12;99764.94;;;13.00;61.65
68656;BME280;55638;51.122;13.606;2022-09-09T05:38:45;99768.16;;;13.04;61.54
68656;BME280;55638;51.122;13.606;2022-09-09T05:40:17;99771.75;;;13.04;61.70
68656;BME280;55638;51.122;13.606;2022-09-09T05:41:50;99774.13;;;13.07;61.67
68656;BME280;55638;51.122;13.606;2022-09-09T05:43:23;99780.09;;;13.11;61.50
68656;BME280;55638;51.122;13.606;2022-09-09T05:44:55;99785.19;;;13.14;61.67
68656;BME280;55638;51.122;13.606;2022-09-09T05:46:27;99779.44;;;13.17;61.96
68656;BME280;55638;51.122;13.606;2022-09-09T05:47:59;99786.22;;;13.21;61.59
68656;BME280;55638;51.122;13.606;2022-09-09T05:49:31;99778.59;;;13.25;61.80
68656;BME280;55638;51.122;13.606;2022-09-09T05:51:05;99772.69;;;13.29;61.58
68656;BME280;55638;51.122;13.606;2022-09-09T05:52:38;99774.06;;;13.33;61.64
68656;BME280;55638;51.122;13.606;2022-09-09T05:54:10;99778.28;;;13.36;61.69
68656;BME280;55638;51.122;13.606;2022-09-09T05:55:47;99783.06;;;13.42;61.35
68656;BME280;55638;51.122;13.606;2022-09-09T05:57:19;99781.59;;;13.48;61.63
68656;BME280;55638;51.122;13.606;2022-09-09T05:58:52;99776.00;;;13.49;61.36
68656;BME280;55638;51.122;13.606;2022-09-09T06:00:27;99778.38;;;13.52;61.50
68656;BME280;55638;51.122;13.606;2022-09-09T06:02:01;99785.19;;;13.56;61.09
68656;BME280;55638;51.122;13.606;2022-09-09T06:03:39;99787.59;;;13.59;61.30
68656;BME280;55638;51.122;13.606;2022-09-09T06:05:12;99791.81;;;13.62;60.86
68656;BME280;55638;51.122;13.606;2022-09-09T06:06:44;99794.19;;;13.65;60.95
68656;BME280;55638;51.122;13.606;2022-09-09T06:08:20;99782.34;;;13.66;60.76
68656;BME280;55638;51.122;13.606;2022-09-09T06:09:51;99792.88;;;13.69;60.79
68656;BME280;55638;51.122;13.606;2022-09-09T06:11:27;99790.81;;;13.71;60.19
68656;BME280;55638;51.122;13.606;2022-09-09T06:12:59;99789.63;;;13.74;60.45
68656;BME280;55638;51.122;13.606;2022-09-09T06:14:31;99785.06;;;13.74;60.55
68656;BME280;55638;51.122;13.606;2022-09-09T06:16:05;99791.16;;;13.76;60.29
68656;BME280;55638;51.122;13.606;2022-09-09T06:17:38;99791.84;;;13.78;60.80
68656;BME280;55638;51.122;13.606;2022-09-09T06:19:11;99784.56;;;13.79;60.56
68656;BME280;55638;51.122;13.606;2022-09-09T06:20:57;99792.53;;;13.80;60.36
68656;BME280;55638;51.122;13.606;2022-09-09T06:22:30;99793.03;;;13.84;60.57
68656;BME280;55638;51.122;13.606;2022-09-09T06:24:02;99796.44;;;13.86;60.84
68656;BME280;55638;51.122;13.606;2022-09-09T06:25:34;99795.28;;;13.88;60.70
68656;BME280;55638;51.122;13.606;2022-09-09T06:27:06;99793.06;;;13.92;60.97
68656;BME280;55638;51.122;13.606;2022-09-09T06:28:40;99793.72;;;13.94;60.92
68656;BME280;55638;51.122;13.606;2022-09-09T06:30:14;99798.81;;;13.97;60.88
68656;BME280;55638;51.122;13.606;2022-09-09T06:31:46;99788.47;;;14.01;60.98
68656;BME280;55638;51.122;13.606;2022-09-09T06:33:26;99785.44;;;14.04;60.94
68656;BME280;55638;51.122;13.606;2022-09-09T06:34:59;99789.53;;;14.08;61.06
68656;BME280;55638;51.122;13.606;2022-09-09T06:36:34;99794.25;;;14.14;61.07
68656;BME280;55638;51.122;13.606;2022-09-09T06:38:06;99795.47;;;14.20;61.12
68656;BME280;55638;51.122;13.606;2022-09-09T06:39:40;99792.91;;;14.26;61.35
68656;BME280;55638;51.122;13.606;2022-09-09T06:41:13;99797.69;;;14.32;61.77
68656;BME280;55638;51.122;13.606;2022-09-09T06:42:47;99795.84;;;14.41;61.74
68656;BME280;55638;51.122;13.606;2022-09-09T06:44:38;99793.09;;;14.49;61.46
68656;BME280;55638;51.122;13.606;2022-09-09T06:46:14;99792.06;;;14.58;61.56
68656;BME280;55638;51.122;13.606;2022-09-09T06:47:47;99796.47;;;14.68;61.60
68656;BME280;55638;51.122;13.606;2022-09-09T06:49:19;99790.84;;;14.77;61.55
68656;BME280;55638;51.122;13.606;2022-09-09T06:52:55;99790.78;;;15.02;61.53
68656;BME280;55638;51.122;13.606;2022-09-09T06:54:27;99785.81;;;15.14;61.31
68656;BME280;55638;51.122;13.606;2022-09-09T06:57:49;99781.16;;;15.39;60.64
68656;BME280;55638;51.122;13.606;2022-09-09T06:59:26;99779.75;;;15.51;60.12
68656;BME280;55638;51.122;13.606;2022-09-09T07:01:06;99782.06;;;15.62;58.63
68656;BME280;55638;51.122;13.606;2022-09-09T07:02:39;99781.47;;;15.75;60.00
68656;BME280;55638;51.122;13.606;2022-09-09T07:04:13;99787.53;;;15.85;59.68
68656;BME280;55638;51.122;13.606;2022-09-09T07:05:54;99787.16;;;15.96;58.84
68656;BME280;55638;51.122;13.606;2022-09-09T07:07:28;99782.31;;;16.07;59.35
68656;BME280;55638;51.122;13.606;2022-09-09T07:09:04;99785.44;;;16.18;59.75
68656;BME280;55638;51.122;13.606;2022-09-09T07:10:37;99781.47;;;16.29;59.99
68656;BME280;55638;51.122;13.606;2022-09-09T07:12:09;99782.88;;;16.40;59.53
68656;BME280;55638;51.122;13.606;2022-09-09T07:13:47;99771.53;;;16.51;59.19
68656;BME280;55638;51.122;13.606;2022-09-09T07:15:19;99779.25;;;16.62;59.27
68656;BME280;55638;51.122;13.606;2022-09-09T07:16:51;99783.78;;;16.70;58.80
68656;BME280;55638;51.122;13.606;2022-09-09T07:18:29;99779.97;;;16.79;58.99
68656;BME280;55638;51.122;13.606;2022-09-09T07:20:02;99790.41;;;16.90;59.21
68656;BME280;55638;51.122;13.606;2022-09-09T07:21:36;99787.22;;;17.02;59.48
68656;BME280;55638;51.122;13.606;2022-09-09T07:23:08;99779.81;;;17.10;59.24
68656;BME280;55638;51.122;13.606;2022-09-09T07:24:40;99784.59;;;17.23;58.99
68656;BME280;55638;51.122;13.606;2022-09-09T07:26:14;99784.94;;;17.35;58.18
68656;BME280;55638;51.122;13.606;2022-09-09T07:27:46;99787.38;;;17.45;58.95
68656;BME280;55638;51.122;13.606;2022-09-09T07:29:18;99788.78;;;17.55;58.17
68656;BME280;55638;51.122;13.606;2022-09-09T07:31:00;99783.69;;;17.67;57.13
68656;BME280;55638;51.122;13.606;2022-09-09T07:32:35;99776.25;;;17.76;57.78
68656;BME280;55638;51.122;13.606;2022-09-09T07:34:07;99781.19;;;17.87;57.36
68656;BME280;55638;51.122;13.606;2022-09-09T07:35:39;99786.31;;;17.97;57.03
68656;BME280;55638;51.122;13.606;2022-09-09T07:37:11;99782.63;;;18.04;56.53
68656;BME280;55638;51.122;13.606;2022-09-09T07:38:56;99790.50;;;18.14;54.87
68656;BME280;55638;51.122;13.606;2022-09-09T07:40:29;99792.06;;;18.23;56.31
68656;BME280;55638;51.122;13.606;2022-09-09T07:42:02;99802.06;;;18.31;56.11
68656;BME280;55638;51.122;13.606;2022-09-09T07:43:33;99789.28;;;18.38;56.00
68656;BME280;55638;51.122;13.606;2022-09-09T07:45:05;99793.56;;;18.47;56.73
68656;BME280;55638;51.122;13.606;2022-09-09T07:46:38;99796.16;;;18.56;56.45
68656;BME280;55638;51.122;13.606;2022-09-09T07:48:14;99792.03;;;18.66;56.65
68656;BME280;55638;51.122;13.606;2022-09-09T07:49:46;99794.44;;;18.76;57.14
68656;BME280;55638;51.122;13.606;2022-09-09T07:51:28;99798.94;;;18.90;56.11
68656;BME280;55638;51.122;13.606;2022-09-09T07:53:00;99797.38;;;19.03;56.05
68656;BME280;55638;51.122;13.606;2022-09-09T07:54:34;99797.44;;;19.16;55.71
68656;BME280;55638;51.122;13.606;2022-09-09T07:56:11;99788.66;;;19.27;54.98
68656;BME280;55638;51.122;13.606;2022-09-09T07:57:43;99799.03;;;19.38;55.14
68656;BME280;55638;51.122;13.606;2022-09-09T07:59:15;99803.31;;;19.48;54.45
68656;BME280;55638;51.122;13.606;2022-09-09T08:00:50;99811.31;;;19.56;53.66
68656;BME280;55638;51.122;13.606;2022-09-09T08:02:25;99811.19;;;19.64;53.84
68656;BME280;55638;51.122;13.606;2022-09-09T08:04:01;99802.13;;;19.70;53.15
68656;BME280;55638;51.122;13.606;2022-09-09T08:05:34;99805.09;;;19.75;53.67
68656;BME280;55638;51.122;13.606;2022-09-09T08:07:06;99816.31;;;19.80;53.89
68656;BME280;55638;51.122;13.606;2022-09-09T08:08:44;99808.53;;;19.84;54.18
68656;BME280;55638;51.122;13.606;2022-09-09T08:10:16;99810.00;;;19.86;53.67
68656;BME280;55638;51.122;13.606;2022-09-09T08:11:51;99815.03;;;19.89;53.81
68656;BME280;55638;51.122;13.606;2022-09-09T08:13:23;99812.13;;;19.91;53.40
68656;BME280;55638;51.122;13.606;2022-09-09T08:14:57;99807.06;;;19.95;53.93
68656;BME280;55638;51.122;13.606;2022-09-09T08:16:37;99807.72;;;19.97;53.45
68656;BME280;55638;51.122;13.606;2022-09-09T08:18:09;99814.47;;;20.01;54.02
68656;BME280;55638;51.122;13.606;2022-09-09T08:19:42;99807.72;;;20.03;53.76
68656;BME280;55638;51.122;13.606;2022-09-09T08:21:20;99808.16;;;20.07;54.30
68656;BME280;55638;51.122;13.606;2022-09-09T08:22:52;99813.84;;;20.12;54.46
68656;BME280;55638;51.122;13.606;2022-09-09T08:24:26;99819.56;;;20.17;54.28
68656;BME280;55638;51.122;13.606;2022-09-09T08:26:05;99813.44;;;20.22;52.98
68656;BME280;55638;51.122;13.606;2022-09-09T08:27:37;99819.16;;;20.27;53.97
68656;BME280;55638;51.122;13.606;2022-09-09T08:29:12;99817.69;;;20.31;53.04
68656;BME280;55638;51.122;13.606;2022-09-09T08:30:45;99817.72;;;20.37;53.27
68656;BME280;55638;51.122;13.606;2022-09-09T08:32:19;99826.16;;;20.43;53.43
68656;BME280;55638;51.122;13.606;2022-09-09T08:33:51;99831.00;;;20.47;53.56
68656;BME280;55638;51.122;13.606;2022-09-09T08:35:24;99821.28;;;20.51;53.47
68656;BME280;55638;51.122;13.606;2022-09-09T08:36:57;99825.34;;;20.55;53.57
68656;BME280;55638;51.122;13.606;2022-09-09T08:38:36;99826.16;;;20.63;53.87
68656;BME280;55638;51.122;13.606;2022-09-09T08:40:18;99820.47;;;20.64;52.37
68656;BME280;55638;51.122;13.606;2022-09-09T08:43:39;99823.41;;;20.82;54.01
68656;BME280;55638;51.122;13.606;2022-09-09T08:45:21;99829.72;;;20.90;52.74
68656;BME280;55638;51.122;13.606;2022-09-09T08:48:46;99820.66;;;21.09;51.11
68656;BME280;55638;51.122;13.606;2022-09-09T08:50:26;99821.06;;;21.19;51.44
68656;BME280;55638;51.122;13.606;2022-09-09T08:52:08;99822.34;;;21.23;51.66
68656;BME280;55638;51.122;13.606;2022-09-09T08:53:48;99820.81;;;21.34;51.92
68656;BME280;55638;51.122;13.606;2022-09-09T08:57:11;99827.34;;;21.40;50.78
68656;BME280;55638;51.122;13.606;2022-09-09T08:58:48;99829.66;;;21.43;51.28
68656;BME280;55638;51.122;13.606;2022-09-09T09:00:35;99836.19;;;21.42;50.68
68656;BME280;55638;51.122;13.606;2022-09-09T09:02:18;99832.00;;;21.39;51.45
68656;BME280;55638;51.122;13.606;2022-09-09T09:05:54;99845.13;;;21.30;50.44